Subpeak Weather

  • Time Avg. Air Temp Dew Point Avg. Rel Humidity Avg. 2 Min Wind Speed Max Gust Velocity MGV Time MGV Direction Avg. Spot Wind Velocity
    2019-02-19 03:50:00-16° C-18° C82%20 km/h23 km/h03:47:00W20 km/h
    02:50:00-17° C-19° C81%22 km/h25 km/h02:47:00W22 km/h
    01:50:00-17° C-19° C81%20 km/h31 km/h01:47:00W23 km/h
    00:50:00-17° C-20° C81%19 km/h24 km/h00:48:00W20 km/h
    23:50:00-17° C-19° C81%17 km/h23 km/h23:50:00W16 km/h
    22:50:00-17° C-20° C76%21 km/h23 km/h22:48:00W19 km/h
    21:50:00-17° C-21° C75%25 km/h30 km/h21:46:00SW25 km/h
    20:50:00-17° C-20° C78%23 km/h25 km/h20:49:00SW23 km/h
    19:50:00-17° C-20° C80%18 km/h20 km/h19:49:00SW16 km/h
    18:50:00-18° C-20° C80%20 km/h23 km/h18:49:00SW18 km/h
    17:50:00-18° C-21° C79%13 km/h17 km/h17:49:00SW13 km/h
    16:50:00-19° C-21° C79%10 km/h14 km/h16:48:00SW9 km/h
    15:50:00-19° C-21° C79%8 km/h11 km/h15:46:00S9 km/h
    14:50:00-18° C-21° C80%10 km/h11 km/h14:49:00S10 km/h
    13:50:00-18° C-20° C80%9 km/h11 km/h13:49:00S7 km/h
    12:50:00-18° C-21° C80%6 km/h11 km/h12:46:00S7 km/h
    11:50:00-15° C-17° C81%4 km/h6 km/h11:50:00S2 km/h
    10:50:00-18° C-21° C79%5 km/h7 km/h10:47:00SE5 km/h
    09:50:00-19° C-21° C79%3 km/h10 km/h09:46:00NE6 km/h
    08:50:00-19° C-22° C79%10 km/h12 km/h08:49:00NE10 km/h
    07:50:00-19° C-21° C79%7 km/h9 km/h07:50:00NE4 km/h
    06:50:00-19° C-22° C78%13 km/h15 km/h06:47:00NE13 km/h
    0° C0° C0%0 km/h0 km/h0 km/h
    04:50:00-19° C-22° C79%5 km/h10 km/h04:50:00NE5 km/h
  • Time Avg. Air Temp Dew Point Avg. Rel Humidity Avg. 2 Min Wind Speed Max Gust Velocity MGV Time MGV Direction Avg. Spot Wind Velocity
    2019-02-19 03:50:00-16° C-18° C82%20 km/h23 km/h03:47:00W20 km/h
    03:45:00-16° C-18° C82%22 km/h25 km/h03:44:00W22 km/h
    03:40:00-16° C-18° C82%16 km/h23 km/h03:36:00W19 km/h
    03:35:00-16° C-18° C82%24 km/h25 km/h03:35:00W22 km/h
    03:30:00-16° C-19° C82%17 km/h24 km/h03:28:00W19 km/h
    03:25:00-17° C-19° C81%21 km/h27 km/h03:21:00NW22 km/h
    03:20:00-17° C-19° C81%22 km/h26 km/h03:20:00W22 km/h
    03:15:00-17° C-19° C81%21 km/h26 km/h03:15:00W20 km/h
    03:10:00-16° C-19° C81%22 km/h24 km/h03:09:00W20 km/h
    03:05:00-16° C-19° C82%22 km/h25 km/h03:03:00W22 km/h
    03:00:00-17° C-19° C81%24 km/h27 km/h03:00:00W23 km/h
    02:55:00-17° C-19° C81%21 km/h25 km/h02:55:00W20 km/h
    02:50:00-17° C-19° C81%22 km/h25 km/h02:47:00W22 km/h

Explore More

Get Revelstoke news, offers, and events via email.